Observations for Trim Market St
| Time | AQI | Temp °C | Hum % | Pres Pa | CO μg/m³ | H₂S μg/m³ | NO μg/m³ | NO₂ μg/m³ | O₃ μg/m³ | SO₂ μg/m³ | PM1 μg/m³ | PM2.5 μg/m³ | PM10 μg/m³ |
|---|---|---|---|---|---|---|---|---|---|---|---|---|---|
| Tuesday 11 August 2026 | |||||||||||||
| 10:03 | 1 | 34.3 | 32 | 66,388 | 0 | 0 | 0.44 | 11.86 | 49.33 | 0 | 0.71 | 3.24 | 3.57 |
| 10:02 | 1 | 34.3 | 32 | 66,384 | 0 | 0 | 0.42 | 12.39 | 52.54 | 0 | 0.71 | 3.77 | 4.15 |
| 10:00 | 1 | 34.1 | 32 | 66,368 | 0 | 0 | 0.43 | 11.2 | 67.72 | 0 | 0 | 2.67 | 2.93 |
| 09:57 | 1 | 33.8 | 33 | 66,353 | 0 | 0 | 0.46 | 10.81 | 58.24 | 0 | 0.71 | 3.2 | 3.52 |
| 09:56 | 1 | 33.6 | 33 | 66,317 | 0 | 0 | 0.47 | 11.98 | 47.81 | 0 | 0.71 | 3.19 | 3.5 |
| 09:53 | 1 | 33.2 | 34 | 66,250 | 0 | 0 | 0.54 | 10.14 | 55.41 | 0 | 0 | 2.6 | 2.86 |
| 09:52 | 1 | 33.1 | 34 | 66,242 | 0 | 0 | 0.55 | 11.84 | 50.67 | 0 | 0 | 3.66 | 4.03 |
| 09:42 | 1 | 32.2 | 35 | 66,147 | 0 | 0 | 0.64 | 9.65 | 44.11 | 0 | 0 | 3.08 | 3.39 |
| 09:41 | 1 | 32.1 | 36 | 66,149 | 0 | 0 | 0.64 | 9.94 | 56.58 | 0 | 0.71 | 3.61 | 4.2 |
| 09:40 | 1 | 32 | 36 | 66,129 | 0 | 0 | 0.61 | 10.54 | 25.91 | 0 | 0.71 | 3.06 | 3.37 |
| 09:39 | 1 | 31.9 | 36 | 66,102 | 0 | 0 | 0.61 | 9.6 | 62.82 | 0 | 0 | 3.06 | 3.37 |
| 09:38 | 1 | 31.8 | 36 | 66,098 | 0 | 0 | 0.61 | 8.37 | 36.32 | 0 | 0 | 3.07 | 3.38 |
| 09:37 | 1 | 31.8 | 36 | 66,062 | 0 | 0 | 0.6 | 8.77 | 50.08 | 0 | 0 | 3.6 | 3.96 |
| 09:36 | 1 | 31.7 | 36 | 66,042 | 0 | 0 | 0.61 | 9.07 | 43.43 | 0 | 0 | 3.59 | 3.95 |
| 09:35 | 1 | 31.6 | 36 | 66,050 | 0 | 0 | 0.65 | 9.09 | 40.88 | 0 | 0 | 3.04 | 3.34 |
| 09:34 | 1 | 31.5 | 37 | 66,060 | 0 | 0 | 0.66 | 9.42 | 41.28 | 0 | 0 | 3.02 | 3.33 |
| 09:33 | 1 | 31.5 | 36 | 66,080 | 0 | 0 | 0.69 | 8.05 | 38.71 | 0 | 0.71 | 3.57 | 3.93 |
| 09:32 | 1 | 31.4 | 37 | 66,042 | 0 | 0 | 0.7 | 8.85 | 37.46 | 0 | 0.71 | 3.56 | 3.91 |
| 09:31 | 1 | 31.3 | 37 | 66,027 | 0 | 0 | 0.71 | 9.08 | 40.03 | 0 | 0 | 3.01 | 3.32 |
| 09:30 | 1 | 31.2 | 37 | 66,031 | 0 | 0 | 0.7 | 9.28 | 51.47 | 0 | 0.71 | 4.09 | 4.23 |